createdAt,value
2022-11-08T00:00:43.829Z,12.50
2022-11-08T00:03:13.125Z,12.50
2022-11-08T00:05:59.405Z,12.60
2022-11-08T00:08:45.887Z,12.60
2022-11-08T00:11:31.901Z,12.60
2022-11-08T00:14:00.755Z,12.60
2022-11-08T00:16:31.609Z,12.60
2022-11-08T00:19:00.548Z,12.60
2022-11-08T00:21:29.639Z,12.50
2022-11-08T00:23:58.496Z,12.60
2022-11-08T00:26:27.336Z,12.50
2022-11-08T00:28:56.180Z,12.60
2022-11-08T00:31:24.903Z,12.50
2022-11-08T00:33:55.903Z,12.60
2022-11-08T00:36:24.935Z,12.60
2022-11-08T00:38:53.795Z,12.60
2022-11-08T00:41:22.650Z,12.60
2022-11-08T00:43:51.557Z,12.60
2022-11-08T00:46:20.330Z,12.60
2022-11-08T00:48:49.161Z,12.60
2022-11-08T00:51:19.545Z,12.60
2022-11-08T00:53:48.551Z,12.70
2022-11-08T00:56:17.330Z,12.70
2022-11-08T00:58:46.122Z,12.70
2022-11-08T01:01:17.680Z,12.70
2022-11-08T01:03:47.195Z,12.70
2022-11-08T01:06:23.045Z,12.70
2022-11-08T01:08:52.943Z,12.70
2022-11-08T01:11:25.851Z,12.60
2022-11-08T01:13:58.429Z,12.60
2022-11-08T01:16:31.504Z,12.50
2022-11-08T01:19:02.439Z,12.40
2022-11-08T01:21:32.857Z,12.30
2022-11-08T01:24:01.812Z,12.30
2022-11-08T01:26:31.989Z,12.20
2022-11-08T01:29:01.249Z,12.20
2022-11-08T01:31:32.887Z,12.20
2022-11-08T01:34:02.375Z,12.20
2022-11-08T01:36:32.635Z,12.10
2022-11-08T01:39:01.397Z,12.20
2022-11-08T01:41:30.253Z,12.10
2022-11-08T01:44:00.789Z,12.20
2022-11-08T01:46:45.802Z,12.30
2022-11-08T01:49:35.033Z,12.30
2022-11-08T01:52:29.001Z,12.30
2022-11-08T01:55:06.108Z,12.30
2022-11-08T01:57:43.503Z,12.40
2022-11-08T02:00:14.439Z,12.40
2022-11-08T02:02:47.091Z,12.50
2022-11-08T02:05:28.811Z,12.50
2022-11-08T02:08:06.786Z,12.50
2022-11-08T02:10:39.641Z,12.60
2022-11-08T02:13:14.949Z,12.60
2022-11-08T02:15:44.757Z,12.60
2022-11-08T02:18:16.242Z,12.60
2022-11-08T02:21:00.056Z,12.60
2022-11-08T02:23:48.262Z,12.70
2022-11-08T02:26:19.087Z,12.70
2022-11-08T02:28:50.314Z,12.70
2022-11-08T02:31:21.322Z,12.70
2022-11-08T02:33:50.394Z,12.70
2022-11-08T02:36:22.968Z,12.80
2022-11-08T02:38:58.541Z,12.80
2022-11-08T02:41:27.311Z,12.80
2022-11-08T02:43:56.154Z,12.80
2022-11-08T02:46:25.294Z,12.70
2022-11-08T02:48:53.952Z,12.70
2022-11-08T02:51:22.699Z,12.70
2022-11-08T02:53:52.864Z,12.60
2022-11-08T02:56:21.732Z,12.50
2022-11-08T02:58:50.643Z,12.50
2022-11-08T03:01:19.761Z,12.50
2022-11-08T03:03:48.673Z,12.50
2022-11-08T03:06:17.674Z,12.40
2022-11-08T03:08:46.442Z,12.40
2022-11-08T03:11:16.680Z,12.40
2022-11-08T03:13:45.493Z,12.30
2022-11-08T03:16:14.491Z,12.30
2022-11-08T03:18:44.117Z,12.20
2022-11-08T03:21:12.854Z,12.20
2022-11-08T03:23:41.755Z,12.20
2022-11-08T03:26:10.593Z,12.20
2022-11-08T03:28:40.775Z,12.10
2022-11-08T03:31:09.613Z,12.10
2022-11-08T03:33:38.422Z,12.10
2022-11-08T03:36:07.804Z,12.00
2022-11-08T03:38:36.619Z,11.90
2022-11-08T03:41:05.735Z,11.90
2022-11-08T03:43:34.640Z,11.90
2022-11-08T03:46:04.806Z,11.80
2022-11-08T03:48:33.650Z,11.80
2022-11-08T03:51:02.509Z,11.70
2022-11-08T03:53:31.265Z,11.70
2022-11-08T03:56:01.468Z,11.70
2022-11-08T03:58:30.525Z,11.60
2022-11-08T04:00:59.495Z,11.60
2022-11-08T04:03:29.690Z,11.60
2022-11-08T04:06:00.451Z,11.50
2022-11-08T04:08:29.870Z,11.50
2022-11-08T04:11:20.362Z,11.50
2022-11-08T04:14:03.212Z,11.50
2022-11-08T04:16:33.045Z,11.50
2022-11-08T04:19:20.815Z,11.50
2022-11-08T04:21:52.380Z,11.50
2022-11-08T04:24:21.855Z,11.50
2022-11-08T04:26:50.944Z,11.50
2022-11-08T04:29:19.778Z,11.50
2022-11-08T04:31:48.640Z,11.50
2022-11-08T04:34:18.957Z,11.50
2022-11-08T04:36:48.065Z,11.50
2022-11-08T04:39:16.833Z,11.50
2022-11-08T04:41:45.662Z,11.50
2022-11-08T04:44:15.787Z,11.50
2022-11-08T04:46:44.544Z,11.50
2022-11-08T04:49:13.761Z,11.50
2022-11-08T04:51:44.267Z,11.40
2022-11-08T04:54:13.061Z,11.30
2022-11-08T04:56:42.153Z,11.40
2022-11-08T04:59:12.478Z,11.40
2022-11-08T05:01:41.740Z,11.40
2022-11-08T05:04:10.602Z,11.40
2022-11-08T05:06:39.392Z,11.40
2022-11-08T05:09:09.661Z,11.40
2022-11-08T05:11:38.469Z,11.50
2022-11-08T05:14:07.373Z,11.40
2022-11-08T05:16:36.214Z,11.40
2022-11-08T05:19:09.223Z,11.50
2022-11-08T05:21:58.201Z,11.40
2022-11-08T05:24:28.593Z,11.40
2022-11-08T05:26:57.853Z,11.40
2022-11-08T05:29:26.644Z,11.40
2022-11-08T05:31:55.391Z,11.40
2022-11-08T05:34:24.328Z,11.40
2022-11-08T05:36:53.313Z,11.40
2022-11-08T05:39:27.210Z,11.40
2022-11-08T05:42:01.609Z,11.30
2022-11-08T05:44:30.449Z,11.30
2022-11-08T05:46:59.230Z,11.30
2022-11-08T05:49:28.057Z,11.40
2022-11-08T05:51:57.059Z,11.40
2022-11-08T05:54:25.958Z,11.40
2022-11-08T05:56:54.837Z,11.40
2022-11-08T05:59:25.274Z,11.40
2022-11-08T06:01:54.187Z,11.40
2022-11-08T06:04:23.167Z,11.40
2022-11-08T06:06:52.092Z,11.50
2022-11-08T06:09:23.516Z,11.50
2022-11-08T06:11:52.256Z,11.50
2022-11-08T06:14:21.123Z,11.40
2022-11-08T06:16:51.717Z,11.40
2022-11-08T06:19:20.818Z,11.40
2022-11-08T06:21:49.776Z,11.40
2022-11-08T06:24:18.800Z,11.40
2022-11-08T06:26:47.592Z,11.50
2022-11-08T06:29:16.835Z,11.40
2022-11-08T06:31:45.709Z,11.20
2022-11-08T06:34:16.203Z,11.10
2022-11-08T06:36:45.119Z,11.10
2022-11-08T06:39:13.966Z,11.00
2022-11-08T06:41:43.026Z,10.90
2022-11-08T06:44:11.831Z,10.90
2022-11-08T06:46:40.661Z,10.90
2022-11-08T06:49:09.638Z,10.90
2022-11-08T06:51:39.829Z,10.90
2022-11-08T06:54:09.818Z,10.80
2022-11-08T06:56:39.830Z,10.80
2022-11-08T06:59:08.616Z,10.80
2022-11-08T07:01:39.926Z,10.80
2022-11-08T07:04:12.360Z,10.80
2022-11-08T07:06:42.716Z,10.80
2022-11-08T07:09:11.785Z,10.80
2022-11-08T07:11:40.659Z,10.80
2022-11-08T07:14:09.722Z,10.90
2022-11-08T07:16:38.562Z,10.80
2022-11-08T07:19:07.844Z,10.80
2022-11-08T07:21:36.600Z,10.90
2022-11-08T07:24:07.460Z,10.90
2022-11-08T07:26:36.541Z,10.90
2022-11-08T07:29:05.411Z,11.00
2022-11-08T07:31:34.693Z,11.00
2022-11-08T07:34:03.617Z,11.10
2022-11-08T07:36:32.417Z,11.20
2022-11-08T07:39:06.305Z,11.20
2022-11-08T07:41:37.079Z,11.40
2022-11-08T07:44:07.260Z,11.50
2022-11-08T07:46:36.155Z,11.60
2022-11-08T07:49:04.971Z,11.80
2022-11-08T07:51:33.960Z,12.00
2022-11-08T07:54:03.316Z,12.20
2022-11-08T07:56:32.608Z,12.30
2022-11-08T07:59:03.265Z,12.30
2022-11-08T08:01:32.147Z,12.30
2022-11-08T08:04:03.469Z,12.30
2022-11-08T08:06:32.288Z,12.30
2022-11-08T08:09:01.257Z,12.30
2022-11-08T08:11:33.611Z,12.30
2022-11-08T08:39:26.390Z,12.50
2022-11-08T08:42:01.952Z,12.60
2022-11-08T08:45:04.887Z,12.70
2022-11-08T08:47:35.445Z,12.80
2022-11-08T08:50:12.447Z,13.00
2022-11-08T08:52:42.068Z,13.20
2022-11-08T08:55:12.404Z,13.40
2022-11-08T08:57:47.066Z,13.40
2022-11-08T09:03:13.319Z,13.30
2022-11-08T09:05:48.619Z,13.20
2022-11-08T09:08:27.758Z,13.20
2022-11-08T09:11:06.626Z,13.30
2022-11-08T09:13:36.428Z,13.90
2022-11-08T09:16:10.967Z,14.40
2022-11-08T09:18:42.198Z,14.80
2022-11-08T09:21:14.689Z,14.80
2022-11-08T09:23:44.627Z,14.70
2022-11-08T09:26:15.573Z,14.80
2022-11-08T09:28:52.075Z,14.90
2022-11-08T09:31:21.518Z,14.90
2022-11-08T09:33:53.130Z,15.10
2022-11-08T09:36:22.802Z,15.00
2022-11-08T09:38:51.995Z,15.10
2022-11-08T09:41:58.598Z,15.40
2022-11-08T09:45:13.362Z,15.80
2022-11-08T09:47:49.021Z,15.80
2022-11-08T09:50:30.050Z,15.50
2022-11-08T09:53:16.438Z,15.50
2022-11-08T09:55:52.007Z,15.30
2022-11-08T09:58:36.582Z,15.60
2022-11-08T10:01:07.194Z,15.80
2022-11-08T10:03:39.428Z,16.00
2022-11-08T10:07:04.253Z,16.40
2022-11-08T10:10:16.950Z,16.60
2022-11-08T10:12:56.637Z,16.70
2022-11-08T10:15:43.011Z,16.90
2022-11-08T10:18:41.239Z,17.30
2022-11-08T10:21:31.791Z,17.40
2022-11-08T10:24:10.745Z,17.20
2022-11-08T10:26:46.065Z,17.20
2022-11-08T10:29:23.558Z,16.90
2022-11-08T10:32:16.246Z,16.90
2022-11-08T10:34:57.011Z,16.80
2022-11-08T10:37:32.884Z,17.30
2022-11-08T10:40:15.894Z,17.50
2022-11-08T10:42:52.553Z,17.50
2022-11-08T10:45:21.435Z,17.80
2022-11-08T10:47:57.410Z,17.80
2022-11-08T10:50:45.791Z,18.00
2022-11-08T10:53:23.380Z,17.70
2022-11-08T10:56:00.568Z,17.80
2022-11-08T10:58:48.182Z,17.90
2022-11-08T11:01:20.760Z,17.70
2022-11-08T11:03:55.383Z,17.20
2022-11-08T11:06:30.611Z,16.90
2022-11-08T11:09:03.864Z,16.60
2022-11-08T11:11:40.972Z,16.50
2022-11-08T11:14:22.491Z,16.50
2022-11-08T11:17:02.301Z,16.40
2022-11-08T11:19:34.192Z,16.40
2022-11-08T11:22:12.329Z,16.80
2022-11-08T11:24:56.284Z,16.70
2022-11-08T11:27:33.250Z,16.50
2022-11-08T11:30:31.512Z,16.60
2022-11-08T11:33:25.968Z,16.50
2022-11-08T11:36:10.710Z,16.90
2022-11-08T11:38:55.341Z,17.30
2022-11-08T11:41:44.217Z,17.30
2022-11-08T11:44:26.798Z,17.50
2022-11-08T11:47:04.747Z,17.50
2022-11-08T11:49:37.177Z,17.10
2022-11-08T11:52:19.062Z,17.10
2022-11-08T11:58:47.467Z,17.00
2022-11-08T12:01:50.999Z,17.00
2022-11-08T12:09:21.671Z,16.60
2022-11-08T12:13:09.256Z,16.60
2022-11-08T12:16:37.376Z,16.80
2022-11-08T12:19:50.309Z,16.60
2022-11-08T12:23:00.804Z,16.70
2022-11-08T12:25:50.685Z,16.50
2022-11-08T12:33:25.292Z,16.20
2022-11-08T12:36:26.995Z,16.10
2022-11-08T12:39:45.068Z,16.10
2022-11-08T12:43:35.693Z,16.20
2022-11-08T12:46:51.881Z,16.10
2022-11-08T12:54:14.308Z,16.10
2022-11-08T12:57:01.527Z,16.10
2022-11-08T12:59:40.113Z,15.90
2022-11-08T13:02:23.842Z,15.80
2022-11-08T13:05:17.409Z,15.70
2022-11-08T13:07:56.358Z,15.60
2022-11-08T13:10:48.409Z,15.50
2022-11-08T13:13:39.905Z,15.40
2022-11-08T13:16:16.620Z,15.40
2022-11-08T13:18:52.370Z,15.20
2022-11-08T13:21:46.510Z,15.20
2022-11-08T13:24:45.420Z,15.20
2022-11-08T13:27:38.264Z,15.20
2022-11-08T13:30:41.606Z,15.20
2022-11-08T13:33:30.434Z,15.20
2022-11-08T13:36:22.678Z,15.20
2022-11-08T13:39:14.002Z,15.20
2022-11-08T13:42:30.115Z,15.20
2022-11-08T13:45:27.848Z,15.10
2022-11-08T13:48:40.657Z,15.10
2022-11-08T13:51:35.719Z,15.00
2022-11-08T13:54:53.904Z,15.00
2022-11-08T13:58:02.230Z,15.00
2022-11-08T14:00:45.508Z,14.90
2022-11-08T14:03:58.003Z,14.90
2022-11-08T14:06:43.247Z,14.80
2022-11-08T14:09:33.377Z,14.80
2022-11-08T14:12:12.581Z,14.80
2022-11-08T14:15:02.129Z,14.70
2022-11-08T14:17:46.390Z,14.70
2022-11-08T14:20:37.724Z,14.60
2022-11-08T14:23:34.923Z,14.60
2022-11-08T14:26:12.796Z,14.60
2022-11-08T14:28:45.198Z,14.60
2022-11-08T14:31:30.646Z,14.50
2022-11-08T14:34:01.866Z,14.50
2022-11-08T14:36:34.702Z,14.40
2022-11-08T14:39:17.817Z,14.50
2022-11-08T14:41:53.525Z,14.50
2022-11-08T14:44:29.698Z,14.40
2022-11-08T14:47:00.634Z,14.40
2022-11-08T14:49:35.079Z,14.40
2022-11-08T14:52:20.459Z,14.40
2022-11-08T14:55:03.055Z,14.40
2022-11-08T14:57:39.289Z,14.30
2022-11-08T15:00:28.385Z,14.20
2022-11-08T15:03:03.422Z,14.20
2022-11-08T15:05:40.240Z,14.10
2022-11-08T15:08:25.976Z,14.10
2022-11-08T15:11:06.865Z,14.10
2022-11-08T15:13:53.912Z,14.00
2022-11-08T15:16:24.752Z,14.00
2022-11-08T15:18:54.798Z,13.90
2022-11-08T15:21:36.381Z,14.00
2022-11-08T15:24:16.475Z,14.00
2022-11-08T15:27:16.970Z,13.90
2022-11-08T15:30:09.759Z,13.80
2022-11-08T15:32:43.157Z,13.70
2022-11-08T15:35:35.048Z,13.60
2022-11-08T15:38:22.959Z,13.50
2022-11-08T15:40:55.875Z,13.50
2022-11-08T15:43:43.430Z,13.40
2022-11-08T15:46:35.487Z,13.50
2022-11-08T15:49:05.006Z,13.50
2022-11-08T15:51:36.041Z,13.50
2022-11-08T15:54:09.648Z,13.50
2022-11-08T15:56:41.338Z,13.40
2022-11-08T15:59:23.570Z,13.30
2022-11-08T16:02:04.769Z,13.50
2022-11-08T16:04:33.984Z,13.50
2022-11-08T16:07:04.987Z,13.50
2022-11-08T16:09:40.584Z,13.50
2022-11-08T16:12:16.369Z,13.60
2022-11-08T16:14:47.236Z,13.60
2022-11-08T16:17:17.276Z,13.50
2022-11-08T16:19:46.435Z,13.40
2022-11-08T16:22:19.228Z,13.50
2022-11-08T16:24:48.492Z,13.50
2022-11-08T16:27:21.067Z,13.60
2022-11-08T16:29:56.755Z,13.70
2022-11-08T16:32:29.288Z,13.70
2022-11-08T16:34:58.542Z,13.70
2022-11-08T16:37:37.591Z,13.80
2022-11-08T16:40:18.504Z,13.80
2022-11-08T16:42:51.971Z,13.90
2022-11-08T16:45:50.444Z,13.90
2022-11-08T16:48:26.955Z,13.90
2022-11-08T16:51:03.391Z,13.90
2022-11-08T16:53:33.120Z,13.90
2022-11-08T16:56:04.250Z,14.00
2022-11-08T16:58:34.412Z,14.10
2022-11-08T17:01:14.915Z,14.10
2022-11-08T17:03:49.958Z,14.10
2022-11-08T17:06:25.198Z,14.10
2022-11-08T17:08:54.610Z,14.20
2022-11-08T17:11:28.842Z,14.20
2022-11-08T17:14:03.539Z,14.20
2022-11-08T17:16:38.959Z,14.10
2022-11-08T17:19:09.348Z,14.10
2022-11-08T17:21:45.727Z,14.10
2022-11-08T17:24:21.776Z,14.10
2022-11-08T17:26:51.737Z,14.10
2022-11-08T17:29:21.615Z,14.20
2022-11-08T17:31:52.338Z,14.10
2022-11-08T17:34:31.609Z,14.20
2022-11-08T17:37:01.763Z,14.20
2022-11-08T17:39:31.028Z,14.20
2022-11-08T17:42:03.390Z,14.20
2022-11-08T17:44:35.018Z,14.20
2022-11-08T17:47:09.890Z,14.20
2022-11-08T17:49:47.520Z,14.20
2022-11-08T17:52:20.485Z,14.20
2022-11-08T17:55:03.109Z,14.20
2022-11-08T17:57:32.174Z,14.30
2022-11-08T18:00:02.638Z,14.30
2022-11-08T18:02:34.844Z,14.30
2022-11-08T18:05:06.987Z,14.30
2022-11-08T18:07:36.616Z,14.30
2022-11-08T18:10:10.282Z,14.30
2022-11-08T18:12:54.787Z,14.30
2022-11-08T18:15:26.201Z,14.40
2022-11-08T18:18:05.738Z,14.30
2022-11-08T18:20:40.272Z,14.20
2022-11-08T18:23:12.491Z,14.20
2022-11-08T18:25:56.473Z,14.10
2022-11-08T18:28:25.981Z,14.10
2022-11-08T18:31:06.359Z,14.10
2022-11-08T18:33:40.755Z,14.10
2022-11-08T18:36:17.434Z,14.10
2022-11-08T18:38:48.948Z,14.10
2022-11-08T18:41:25.427Z,14.10
2022-11-08T18:44:02.024Z,14.10
2022-11-08T18:46:43.668Z,14.00
2022-11-08T18:49:18.402Z,14.00
2022-11-08T18:51:52.994Z,14.00
2022-11-08T18:54:23.090Z,14.00
2022-11-08T18:57:00.637Z,14.00
2022-11-08T18:59:41.665Z,13.90
2022-11-08T19:02:12.922Z,14.00
2022-11-08T19:04:49.119Z,13.90
2022-11-08T19:07:24.772Z,13.90
2022-11-08T19:09:54.905Z,13.90
2022-11-08T19:12:30.674Z,13.70
2022-11-08T19:15:00.558Z,13.70
2022-11-08T19:17:32.357Z,13.60
2022-11-08T19:20:06.008Z,13.70
2022-11-08T19:22:36.452Z,13.70
2022-11-08T19:25:09.061Z,13.60
2022-11-08T19:27:39.508Z,13.60
2022-11-08T19:30:12.819Z,13.50
2022-11-08T19:32:41.975Z,13.50
2022-11-08T19:35:17.773Z,13.50
2022-11-08T19:37:47.242Z,13.60
2022-11-08T19:40:16.229Z,13.60
2022-11-08T19:42:45.690Z,13.50
2022-11-08T19:45:14.970Z,13.50
2022-11-08T19:47:47.933Z,13.50
2022-11-08T19:50:18.811Z,13.50
2022-11-08T19:52:51.798Z,13.40
2022-11-08T19:55:21.073Z,13.50
2022-11-08T19:57:55.667Z,13.50
2022-11-08T20:00:28.827Z,13.40
2022-11-08T20:03:01.196Z,13.30
2022-11-08T20:05:33.623Z,13.30
2022-11-08T20:08:07.792Z,13.30
2022-11-08T20:10:37.085Z,13.30
2022-11-08T20:13:12.975Z,13.30
2022-11-08T20:15:42.953Z,13.40
2022-11-08T20:18:15.212Z,13.30
2022-11-08T20:20:48.773Z,13.40
2022-11-08T20:23:20.709Z,13.30
2022-11-08T20:25:49.722Z,13.30
2022-11-08T20:28:18.912Z,13.30
2022-11-08T20:30:49.545Z,13.20
2022-11-08T20:33:25.151Z,13.20
2022-11-08T20:35:58.442Z,13.10
2022-11-08T20:38:45.764Z,13.10
2022-11-08T20:41:25.962Z,13.20
2022-11-08T20:43:58.401Z,13.10
2022-11-08T20:46:28.049Z,13.10
2022-11-08T20:49:01.632Z,13.10
2022-11-08T20:51:39.437Z,13.20
2022-11-08T20:54:11.101Z,13.20
2022-11-08T20:56:45.264Z,13.20
2022-11-08T20:59:18.765Z,13.10
2022-11-08T21:01:48.632Z,13.10
2022-11-08T21:04:18.124Z,13.10
2022-11-08T21:07:59.237Z,13.10
2022-11-08T21:10:20.028Z,13.10
2022-11-08T21:13:02.073Z,13.20
2022-11-08T21:15:34.753Z,13.20
2022-11-08T21:18:05.366Z,13.30
2022-11-08T21:20:37.980Z,13.40
2022-11-08T21:23:14.469Z,13.40
2022-11-08T21:25:52.786Z,13.40
2022-11-08T21:28:27.179Z,13.40
2022-11-08T21:31:05.343Z,13.40
2022-11-08T21:33:41.559Z,13.40
2022-11-08T21:36:13.129Z,13.40
2022-11-08T21:38:46.387Z,13.40
2022-11-08T21:41:22.752Z,13.40
2022-11-08T21:43:53.455Z,13.30
2022-11-08T21:46:29.220Z,13.30
2022-11-08T21:49:13.706Z,13.40
2022-11-08T21:51:44.168Z,13.30
2022-11-08T21:54:17.874Z,13.40
2022-11-08T21:56:47.036Z,13.30
2022-11-08T21:59:16.534Z,13.30
2022-11-08T22:01:49.552Z,13.30
2022-11-08T22:04:19.354Z,13.30
2022-11-08T22:06:54.825Z,13.30
2022-11-08T22:09:32.820Z,13.30
2022-11-08T22:12:03.030Z,13.30
2022-11-08T22:14:34.505Z,13.20
2022-11-08T22:17:04.166Z,13.20
2022-11-08T22:19:33.301Z,13.20
2022-11-08T22:22:02.961Z,13.20
2022-11-08T22:24:33.946Z,13.10
2022-11-08T22:27:10.336Z,13.00
2022-11-08T22:29:42.882Z,13.00
2022-11-08T22:32:12.434Z,13.00
2022-11-08T22:34:46.096Z,13.00
2022-11-08T22:37:15.483Z,13.00
2022-11-08T22:39:46.468Z,12.90
2022-11-08T22:42:16.588Z,12.90
2022-11-08T22:44:50.081Z,12.90
2022-11-08T22:47:23.930Z,12.90
2022-11-08T22:49:59.571Z,12.90
2022-11-08T22:52:34.571Z,12.80
2022-11-08T22:55:09.793Z,12.80
2022-11-08T22:57:39.097Z,12.70
2022-11-08T23:00:16.544Z,12.70
2022-11-08T23:02:49.243Z,12.80
2022-11-08T23:05:23.130Z,12.70
2022-11-08T23:07:53.896Z,12.80
2022-11-08T23:10:27.707Z,12.70
2022-11-08T23:13:14.658Z,12.60
2022-11-08T23:16:06.248Z,12.70
2022-11-08T23:19:04.809Z,12.60
2022-11-08T23:21:51.207Z,12.60
2022-11-08T23:24:23.799Z,12.70
2022-11-08T23:27:15.923Z,12.70
2022-11-08T23:30:03.376Z,12.60
2022-11-08T23:32:35.438Z,12.60
2022-11-08T23:35:05.040Z,12.50
2022-11-08T23:37:42.457Z,12.50
2022-11-08T23:40:35.490Z,12.50
2022-11-08T23:43:26.210Z,12.50
2022-11-08T23:45:56.578Z,12.40
2022-11-08T23:48:26.071Z,12.40
2022-11-08T23:50:58.777Z,12.50
2022-11-08T23:53:28.036Z,12.50
2022-11-08T23:56:09.715Z,12.40
2022-11-08T23:58:41.969Z,12.50
